sensor_id;sensor_type;location;lat;lon;timestamp;temperature;humidity
16032;DHT22;8120;48.308;8.914;2023-07-09T00:01:16;18.20;70.40
16032;DHT22;8120;48.308;8.914;2023-07-09T00:03:45;18.20;70.20
16032;DHT22;8120;48.308;8.914;2023-07-09T00:06:16;18.30;70.60
16032;DHT22;8120;48.308;8.914;2023-07-09T00:08:48;18.30;69.60
16032;DHT22;8120;48.308;8.914;2023-07-09T00:11:16;18.20;69.50
16032;DHT22;8120;48.308;8.914;2023-07-09T00:13:45;18.20;69.90
16032;DHT22;8120;48.308;8.914;2023-07-09T00:16:15;18.20;71.10
16032;DHT22;8120;48.308;8.914;2023-07-09T00:18:45;18.00;70.90
16032;DHT22;8120;48.308;8.914;2023-07-09T00:21:18;18.00;71.30
16032;DHT22;8120;48.308;8.914;2023-07-09T00:23:46;17.90;70.90
16032;DHT22;8120;48.308;8.914;2023-07-09T00:26:16;17.80;71.10
16032;DHT22;8120;48.308;8.914;2023-07-09T00:28:50;17.70;71.30
16032;DHT22;8120;48.308;8.914;2023-07-09T00:31:18;17.70;72.00
16032;DHT22;8120;48.308;8.914;2023-07-09T00:33:45;17.70;71.60
16032;DHT22;8120;48.308;8.914;2023-07-09T00:36:18;17.70;72.90
16032;DHT22;8120;48.308;8.914;2023-07-09T00:38:48;17.60;73.30
16032;DHT22;8120;48.308;8.914;2023-07-09T00:41:20;17.60;73.30
16032;DHT22;8120;48.308;8.914;2023-07-09T00:43:50;17.50;72.80
16032;DHT22;8120;48.308;8.914;2023-07-09T00:49:29;17.20;73.20
16032;DHT22;8120;48.308;8.914;2023-07-09T00:52:02;17.10;74.60
16032;DHT22;8120;48.308;8.914;2023-07-09T00:54:34;17.20;74.00
16032;DHT22;8120;48.308;8.914;2023-07-09T00:57:06;17.20;74.00
16032;DHT22;8120;48.308;8.914;2023-07-09T00:59:37;17.20;74.20
16032;DHT22;8120;48.308;8.914;2023-07-09T01:02:07;17.20;74.10
16032;DHT22;8120;48.308;8.914;2023-07-09T01:04:35;17.10;74.50
16032;DHT22;8120;48.308;8.914;2023-07-09T01:07:07;17.10;73.30
16032;DHT22;8120;48.308;8.914;2023-07-09T01:09:36;17.10;74.30
16032;DHT22;8120;48.308;8.914;2023-07-09T01:12:09;17.10;73.90
16032;DHT22;8120;48.308;8.914;2023-07-09T01:14:38;17.00;73.80
16032;DHT22;8120;48.308;8.914;2023-07-09T01:17:07;17.00;73.80
16032;DHT22;8120;48.308;8.914;2023-07-09T01:19:43;16.90;72.90
16032;DHT22;8120;48.308;8.914;2023-07-09T01:22:14;16.90;72.90
16032;DHT22;8120;48.308;8.914;2023-07-09T01:24:52;16.90;73.70
16032;DHT22;8120;48.308;8.914;2023-07-09T01:27:22;16.90;74.00
16032;DHT22;8120;48.308;8.914;2023-07-09T01:29:50;16.90;74.30
16032;DHT22;8120;48.308;8.914;2023-07-09T01:32:19;16.80;74.90
16032;DHT22;8120;48.308;8.914;2023-07-09T01:34:50;16.60;74.70
16032;DHT22;8120;48.308;8.914;2023-07-09T01:37:24;16.50;74.90
16032;DHT22;8120;48.308;8.914;2023-07-09T01:39:53;16.50;74.90
16032;DHT22;8120;48.308;8.914;2023-07-09T01:42:23;16.60;75.70
16032;DHT22;8120;48.308;8.914;2023-07-09T01:44:52;16.60;75.10
16032;DHT22;8120;48.308;8.914;2023-07-09T01:47:22;16.60;76.00
16032;DHT22;8120;48.308;8.914;2023-07-09T01:49:51;16.60;75.30
16032;DHT22;8120;48.308;8.914;2023-07-09T01:52:27;16.60;75.00
16032;DHT22;8120;48.308;8.914;2023-07-09T01:54:56;16.60;76.30
16032;DHT22;8120;48.308;8.914;2023-07-09T01:57:25;16.50;75.50
16032;DHT22;8120;48.308;8.914;2023-07-09T02:00:01;16.40;75.00
16032;DHT22;8120;48.308;8.914;2023-07-09T02:02:30;16.30;75.40
16032;DHT22;8120;48.308;8.914;2023-07-09T02:05:00;16.20;75.00
16032;DHT22;8120;48.308;8.914;2023-07-09T02:07:29;16.10;76.30
16032;DHT22;8120;48.308;8.914;2023-07-09T02:09:58;16.00;76.70
16032;DHT22;8120;48.308;8.914;2023-07-09T02:12:25;16.00;77.40
16032;DHT22;8120;48.308;8.914;2023-07-09T02:14:53;16.10;77.40
16032;DHT22;8120;48.308;8.914;2023-07-09T02:17:21;16.00;77.10
16032;DHT22;8120;48.308;8.914;2023-07-09T02:19:49;16.00;77.10
16032;DHT22;8120;48.308;8.914;2023-07-09T02:22:17;16.00;77.30
16032;DHT22;8120;48.308;8.914;2023-07-09T02:24:47;16.00;77.40
16032;DHT22;8120;48.308;8.914;2023-07-09T02:27:17;16.00;76.50
16032;DHT22;8120;48.308;8.914;2023-07-09T02:29:45;16.00;77.30
16032;DHT22;8120;48.308;8.914;2023-07-09T02:32:17;16.00;77.20
16032;DHT22;8120;48.308;8.914;2023-07-09T02:34:45;16.00;76.90
16032;DHT22;8120;48.308;8.914;2023-07-09T02:37:16;15.90;78.00
16032;DHT22;8120;48.308;8.914;2023-07-09T02:39:46;15.90;78.40
16032;DHT22;8120;48.308;8.914;2023-07-09T02:42:16;15.90;78.20
16032;DHT22;8120;48.308;8.914;2023-07-09T02:44:45;15.90;77.80
16032;DHT22;8120;48.308;8.914;2023-07-09T02:47:13;15.80;77.60
16032;DHT22;8120;48.308;8.914;2023-07-09T02:49:41;15.80;77.40
16032;DHT22;8120;48.308;8.914;2023-07-09T02:52:09;15.70;76.90
16032;DHT22;8120;48.308;8.914;2023-07-09T02:54:37;15.60;78.90
16032;DHT22;8120;48.308;8.914;2023-07-09T02:57:07;15.70;79.20
16032;DHT22;8120;48.308;8.914;2023-07-09T02:59:35;15.80;78.10
16032;DHT22;8120;48.308;8.914;2023-07-09T03:02:03;15.70;77.70
16032;DHT22;8120;48.308;8.914;2023-07-09T03:04:31;15.70;78.00
16032;DHT22;8120;48.308;8.914;2023-07-09T03:06:59;15.70;77.60
16032;DHT22;8120;48.308;8.914;2023-07-09T03:09:27;15.60;77.80
16032;DHT22;8120;48.308;8.914;2023-07-09T03:11:56;15.60;78.90
16032;DHT22;8120;48.308;8.914;2023-07-09T03:14:25;15.70;78.40
16032;DHT22;8120;48.308;8.914;2023-07-09T03:16:53;15.60;78.60
16032;DHT22;8120;48.308;8.914;2023-07-09T03:19:22;15.60;78.50
16032;DHT22;8120;48.308;8.914;2023-07-09T03:21:50;15.60;78.10
16032;DHT22;8120;48.308;8.914;2023-07-09T03:24:18;15.60;78.00
16032;DHT22;8120;48.308;8.914;2023-07-09T03:26:46;15.50;78.10
16032;DHT22;8120;48.308;8.914;2023-07-09T03:29:15;15.50;78.30
16032;DHT22;8120;48.308;8.914;2023-07-09T03:31:44;15.50;78.20
16032;DHT22;8120;48.308;8.914;2023-07-09T03:34:12;15.50;78.30
16032;DHT22;8120;48.308;8.914;2023-07-09T03:36:41;15.50;78.40
16032;DHT22;8120;48.308;8.914;2023-07-09T03:39:09;15.40;78.50
16032;DHT22;8120;48.308;8.914;2023-07-09T03:41:37;15.40;78.20
16032;DHT22;8120;48.308;8.914;2023-07-09T03:44:05;15.40;79.00
16032;DHT22;8120;48.308;8.914;2023-07-09T03:46:33;15.40;78.90
16032;DHT22;8120;48.308;8.914;2023-07-09T03:49:02;15.40;78.80
16032;DHT22;8120;48.308;8.914;2023-07-09T03:51:30;15.50;78.80
16032;DHT22;8120;48.308;8.914;2023-07-09T03:53:58;15.70;78.10
16032;DHT22;8120;48.308;8.914;2023-07-09T03:56:26;16.00;77.40
16032;DHT22;8120;48.308;8.914;2023-07-09T03:58:54;16.50;75.70
16032;DHT22;8120;48.308;8.914;2023-07-09T04:01:21;16.90;73.90
16032;DHT22;8120;48.308;8.914;2023-07-09T04:03:49;17.10;72.80
16032;DHT22;8120;48.308;8.914;2023-07-09T04:06:19;17.40;72.40
16032;DHT22;8120;48.308;8.914;2023-07-09T04:08:46;17.80;70.80
16032;DHT22;8120;48.308;8.914;2023-07-09T04:11:14;18.10;69.90
16032;DHT22;8120;48.308;8.914;2023-07-09T04:13:42;18.40;68.80
16032;DHT22;8120;48.308;8.914;2023-07-09T04:16:10;18.70;68.30
16032;DHT22;8120;48.308;8.914;2023-07-09T04:18:38;19.10;66.60
16032;DHT22;8120;48.308;8.914;2023-07-09T04:21:06;19.50;65.80
16032;DHT22;8120;48.308;8.914;2023-07-09T04:23:35;19.40;64.20
16032;DHT22;8120;48.308;8.914;2023-07-09T04:26:03;19.10;65.20
16032;DHT22;8120;48.308;8.914;2023-07-09T04:28:35;19.00;65.10
16032;DHT22;8120;48.308;8.914;2023-07-09T04:31:03;18.50;67.10
16032;DHT22;8120;48.308;8.914;2023-07-09T04:33:31;18.30;67.70
16032;DHT22;8120;48.308;8.914;2023-07-09T04:36:02;18.20;68.60
16032;DHT22;8120;48.308;8.914;2023-07-09T04:38:32;18.00;69.60
16032;DHT22;8120;48.308;8.914;2023-07-09T04:41:01;18.10;70.00
16032;DHT22;8120;48.308;8.914;2023-07-09T04:43:29;18.30;69.10
16032;DHT22;8120;48.308;8.914;2023-07-09T04:45:58;18.50;68.40
16032;DHT22;8120;48.308;8.914;2023-07-09T04:48:26;18.80;67.80
16032;DHT22;8120;48.308;8.914;2023-07-09T04:50:54;19.30;67.40
16032;DHT22;8120;48.308;8.914;2023-07-09T04:53:22;20.10;64.60
16032;DHT22;8120;48.308;8.914;2023-07-09T04:55:51;20.30;63.30
16032;DHT22;8120;48.308;8.914;2023-07-09T04:58:20;20.00;64.30
16032;DHT22;8120;48.308;8.914;2023-07-09T05:00:48;20.20;64.30
16032;DHT22;8120;48.308;8.914;2023-07-09T05:03:18;21.10;61.80
16032;DHT22;8120;48.308;8.914;2023-07-09T05:05:47;21.20;60.90
16032;DHT22;8120;48.308;8.914;2023-07-09T05:08:15;21.00;61.30
16032;DHT22;8120;48.308;8.914;2023-07-09T05:10:45;20.90;61.90
16032;DHT22;8120;48.308;8.914;2023-07-09T05:13:14;20.80;62.30
16032;DHT22;8120;48.308;8.914;2023-07-09T05:15:45;21.20;61.40
16032;DHT22;8120;48.308;8.914;2023-07-09T05:18:14;21.30;62.40
16032;DHT22;8120;48.308;8.914;2023-07-09T05:20:42;21.60;60.90
16032;DHT22;8120;48.308;8.914;2023-07-09T05:23:11;22.00;59.20
16032;DHT22;8120;48.308;8.914;2023-07-09T05:25:39;21.50;60.50
16032;DHT22;8120;48.308;8.914;2023-07-09T05:28:07;20.90;62.60
16032;DHT22;8120;48.308;8.914;2023-07-09T05:30:35;20.90;63.00
16032;DHT22;8120;48.308;8.914;2023-07-09T05:33:04;21.50;60.90
16032;DHT22;8120;48.308;8.914;2023-07-09T05:35:32;21.80;60.70
16032;DHT22;8120;48.308;8.914;2023-07-09T05:38:00;22.60;58.20
16032;DHT22;8120;48.308;8.914;2023-07-09T05:40:28;22.90;57.70
16032;DHT22;8120;48.308;8.914;2023-07-09T05:42:56;22.90;57.60
16032;DHT22;8120;48.308;8.914;2023-07-09T05:45:24;23.50;56.20
16032;DHT22;8120;48.308;8.914;2023-07-09T05:47:52;23.70;56.40
16032;DHT22;8120;48.308;8.914;2023-07-09T05:50:22;23.80;56.80
16032;DHT22;8120;48.308;8.914;2023-07-09T05:52:50;23.30;57.80
16032;DHT22;8120;48.308;8.914;2023-07-09T05:55:18;22.70;59.60
16032;DHT22;8120;48.308;8.914;2023-07-09T05:57:46;22.20;61.60
16032;DHT22;8120;48.308;8.914;2023-07-09T06:00:14;22.80;59.20
16032;DHT22;8120;48.308;8.914;2023-07-09T06:02:43;23.50;57.20
16032;DHT22;8120;48.308;8.914;2023-07-09T06:05:11;23.50;57.10
16032;DHT22;8120;48.308;8.914;2023-07-09T06:07:40;24.00;56.10
16032;DHT22;8120;48.308;8.914;2023-07-09T06:10:09;24.10;55.40
16032;DHT22;8120;48.308;8.914;2023-07-09T06:12:37;24.60;54.00
16032;DHT22;8120;48.308;8.914;2023-07-09T06:15:06;25.20;52.50
16032;DHT22;8120;48.308;8.914;2023-07-09T06:17:34;26.00;51.50
16032;DHT22;8120;48.308;8.914;2023-07-09T06:20:02;26.50;49.40
16032;DHT22;8120;48.308;8.914;2023-07-09T06:22:31;26.40;50.10
16032;DHT22;8120;48.308;8.914;2023-07-09T06:25:00;26.70;49.40
16032;DHT22;8120;48.308;8.914;2023-07-09T06:27:28;26.50;49.90
16032;DHT22;8120;48.308;8.914;2023-07-09T06:29:56;26.80;49.80
16032;DHT22;8120;48.308;8.914;2023-07-09T06:32:24;27.20;49.00
16032;DHT22;8120;48.308;8.914;2023-07-09T06:34:52;27.00;49.50
16032;DHT22;8120;48.308;8.914;2023-07-09T06:37:20;27.10;49.40
16032;DHT22;8120;48.308;8.914;2023-07-09T06:39:48;27.50;48.70
16032;DHT22;8120;48.308;8.914;2023-07-09T06:42:17;27.70;48.60
16032;DHT22;8120;48.308;8.914;2023-07-09T06:44:45;28.20;47.70
16032;DHT22;8120;48.308;8.914;2023-07-09T06:47:13;28.00;48.20
16032;DHT22;8120;48.308;8.914;2023-07-09T06:49:41;27.70;48.80
16032;DHT22;8120;48.308;8.914;2023-07-09T06:52:09;28.00;48.10
16032;DHT22;8120;48.308;8.914;2023-07-09T06:54:37;28.20;48.70
16032;DHT22;8120;48.308;8.914;2023-07-09T06:57:05;28.40;47.90
16032;DHT22;8120;48.308;8.914;2023-07-09T06:59:34;28.50;47.70
16032;DHT22;8120;48.308;8.914;2023-07-09T07:02:02;28.30;47.50
16032;DHT22;8120;48.308;8.914;2023-07-09T07:04:30;28.20;47.40
16032;DHT22;8120;48.308;8.914;2023-07-09T07:06:58;28.40;46.80
16032;DHT22;8120;48.308;8.914;2023-07-09T07:09:26;29.10;45.30
16032;DHT22;8120;48.308;8.914;2023-07-09T07:11:54;29.00;45.00
16032;DHT22;8120;48.308;8.914;2023-07-09T07:14:22;29.40;44.50
16032;DHT22;8120;48.308;8.914;2023-07-09T07:16:51;29.90;42.90
16032;DHT22;8120;48.308;8.914;2023-07-09T07:19:19;30.70;41.50
16032;DHT22;8120;48.308;8.914;2023-07-09T07:21:47;30.90;40.90
16032;DHT22;8120;48.308;8.914;2023-07-09T07:24:15;30.70;41.10
16032;DHT22;8120;48.308;8.914;2023-07-09T07:26:43;30.70;40.80
16032;DHT22;8120;48.308;8.914;2023-07-09T07:29:11;30.30;41.80
16032;DHT22;8120;48.308;8.914;2023-07-09T07:31:39;30.50;42.40
16032;DHT22;8120;48.308;8.914;2023-07-09T07:34:08;30.00;43.40
16032;DHT22;8120;48.308;8.914;2023-07-09T07:36:36;31.10;41.80
16032;DHT22;8120;48.308;8.914;2023-07-09T07:39:08;31.00;41.60
16032;DHT22;8120;48.308;8.914;2023-07-09T07:41:37;29.80;44.30
16032;DHT22;8120;48.308;8.914;2023-07-09T07:44:04;29.70;44.60
16032;DHT22;8120;48.308;8.914;2023-07-09T07:46:33;29.90;44.00
16032;DHT22;8120;48.308;8.914;2023-07-09T07:49:01;30.30;43.00
16032;DHT22;8120;48.308;8.914;2023-07-09T07:51:31;30.10;43.20
16032;DHT22;8120;48.308;8.914;2023-07-09T07:54:00;30.20;43.10
16032;DHT22;8120;48.308;8.914;2023-07-09T07:56:28;30.40;42.10
16032;DHT22;8120;48.308;8.914;2023-07-09T07:58:56;30.50;41.30
16032;DHT22;8120;48.308;8.914;2023-07-09T08:01:24;31.20;39.00
16032;DHT22;8120;48.308;8.914;2023-07-09T08:03:53;31.70;39.40
16032;DHT22;8120;48.308;8.914;2023-07-09T08:06:21;32.00;38.70
16032;DHT22;8120;48.308;8.914;2023-07-09T08:08:50;32.40;37.90
16032;DHT22;8120;48.308;8.914;2023-07-09T08:11:18;33.30;37.10
16032;DHT22;8120;48.308;8.914;2023-07-09T08:13:46;33.70;36.70
16032;DHT22;8120;48.308;8.914;2023-07-09T08:16:14;33.10;36.10
16032;DHT22;8120;48.308;8.914;2023-07-09T08:18:44;32.60;36.20
16032;DHT22;8120;48.308;8.914;2023-07-09T08:21:12;32.50;37.00
16032;DHT22;8120;48.308;8.914;2023-07-09T08:23:40;32.40;37.30
16032;DHT22;8120;48.308;8.914;2023-07-09T08:26:09;33.00;36.10
16032;DHT22;8120;48.308;8.914;2023-07-09T08:28:38;32.80;36.30
16032;DHT22;8120;48.308;8.914;2023-07-09T08:31:06;33.20;36.60
16032;DHT22;8120;48.308;8.914;2023-07-09T08:33:34;33.40;35.60
16032;DHT22;8120;48.308;8.914;2023-07-09T08:36:03;33.40;36.10
16032;DHT22;8120;48.308;8.914;2023-07-09T08:38:31;32.60;36.10
16032;DHT22;8120;48.308;8.914;2023-07-09T08:41:02;32.10;36.90
16032;DHT22;8120;48.308;8.914;2023-07-09T08:43:46;32.30;36.90
16032;DHT22;8120;48.308;8.914;2023-07-09T08:46:24;31.30;38.20
16032;DHT22;8120;48.308;8.914;2023-07-09T08:48:56;32.10;37.80
16032;DHT22;8120;48.308;8.914;2023-07-09T08:51:29;32.50;37.30
16032;DHT22;8120;48.308;8.914;2023-07-09T08:54:01;33.10;36.10
16032;DHT22;8120;48.308;8.914;2023-07-09T08:56:32;33.70;34.50
16032;DHT22;8120;48.308;8.914;2023-07-09T08:59:02;33.90;34.20
16032;DHT22;8120;48.308;8.914;2023-07-09T09:01:35;33.90;34.30
16032;DHT22;8120;48.308;8.914;2023-07-09T09:04:14;33.20;35.00
16032;DHT22;8120;48.308;8.914;2023-07-09T09:06:46;33.50;35.10
16032;DHT22;8120;48.308;8.914;2023-07-09T09:09:20;33.80;34.40
16032;DHT22;8120;48.308;8.914;2023-07-09T09:11:55;34.10;34.20
16032;DHT22;8120;48.308;8.914;2023-07-09T09:14:30;33.40;34.40
16032;DHT22;8120;48.308;8.914;2023-07-09T09:17:01;33.10;34.60
16032;DHT22;8120;48.308;8.914;2023-07-09T09:19:32;33.50;34.30
16032;DHT22;8120;48.308;8.914;2023-07-09T09:22:08;33.80;33.90
16032;DHT22;8120;48.308;8.914;2023-07-09T09:24:38;33.40;34.10
16032;DHT22;8120;48.308;8.914;2023-07-09T09:27:09;33.20;34.70
16032;DHT22;8120;48.308;8.914;2023-07-09T09:29:38;33.90;33.80
16032;DHT22;8120;48.308;8.914;2023-07-09T09:32:20;34.40;32.70
16032;DHT22;8120;48.308;8.914;2023-07-09T09:34:50;34.30;33.40
16032;DHT22;8120;48.308;8.914;2023-07-09T09:37:25;34.50;33.10
16032;DHT22;8120;48.308;8.914;2023-07-09T09:39:54;33.90;32.60
16032;DHT22;8120;48.308;8.914;2023-07-09T09:42:40;34.10;32.40
16032;DHT22;8120;48.308;8.914;2023-07-09T09:45:14;34.40;32.10
16032;DHT22;8120;48.308;8.914;2023-07-09T09:47:43;34.00;32.30
16032;DHT22;8120;48.308;8.914;2023-07-09T09:50:13;33.40;33.40
16032;DHT22;8120;48.308;8.914;2023-07-09T09:52:43;34.00;32.70
16032;DHT22;8120;48.308;8.914;2023-07-09T09:55:15;34.80;31.90
16032;DHT22;8120;48.308;8.914;2023-07-09T09:57:48;34.70;31.30
16032;DHT22;8120;48.308;8.914;2023-07-09T10:00:20;34.20;31.60
16032;DHT22;8120;48.308;8.914;2023-07-09T10:02:49;34.20;32.30
16032;DHT22;8120;48.308;8.914;2023-07-09T10:05:21;34.20;32.50
16032;DHT22;8120;48.308;8.914;2023-07-09T10:07:58;34.50;32.40
16032;DHT22;8120;48.308;8.914;2023-07-09T10:10:29;34.30;31.60
16032;DHT22;8120;48.308;8.914;2023-07-09T10:13:03;33.70;32.40
16032;DHT22;8120;48.308;8.914;2023-07-09T10:15:41;34.50;32.30
16032;DHT22;8120;48.308;8.914;2023-07-09T10:18:22;34.60;31.60
16032;DHT22;8120;48.308;8.914;2023-07-09T10:21:04;34.20;31.80
16032;DHT22;8120;48.308;8.914;2023-07-09T10:23:38;34.10;32.30
16032;DHT22;8120;48.308;8.914;2023-07-09T10:26:11;34.30;32.00
16032;DHT22;8120;48.308;8.914;2023-07-09T10:29:14;34.20;31.60
16032;DHT22;8120;48.308;8.914;2023-07-09T10:31:52;33.60;32.60
16032;DHT22;8120;48.308;8.914;2023-07-09T10:34:29;33.80;33.00
16032;DHT22;8120;48.308;8.914;2023-07-09T10:37:16;34.40;32.30
16032;DHT22;8120;48.308;8.914;2023-07-09T10:39:53;34.80;31.90
16032;DHT22;8120;48.308;8.914;2023-07-09T10:42:25;34.60;31.80
16032;DHT22;8120;48.308;8.914;2023-07-09T10:44:56;34.60;32.20
16032;DHT22;8120;48.308;8.914;2023-07-09T10:47:30;34.70;31.50
16032;DHT22;8120;48.308;8.914;2023-07-09T10:49:59;34.80;31.40
16032;DHT22;8120;48.308;8.914;2023-07-09T10:52:30;34.70;32.10
16032;DHT22;8120;48.308;8.914;2023-07-09T10:55:03;34.90;31.30
16032;DHT22;8120;48.308;8.914;2023-07-09T10:57:41;34.40;32.30
16032;DHT22;8120;48.308;8.914;2023-07-09T11:00:15;34.20;31.90
16032;DHT22;8120;48.308;8.914;2023-07-09T11:02:48;34.40;31.60
16032;DHT22;8120;48.308;8.914;2023-07-09T11:05:18;33.90;32.00
16032;DHT22;8120;48.308;8.914;2023-07-09T11:08:03;33.70;32.20
16032;DHT22;8120;48.308;8.914;2023-07-09T11:10:36;33.80;32.40
16032;DHT22;8120;48.308;8.914;2023-07-09T11:13:09;33.80;31.70
16032;DHT22;8120;48.308;8.914;2023-07-09T11:15:41;33.20;32.50
16032;DHT22;8120;48.308;8.914;2023-07-09T11:18:13;32.90;32.70
16032;DHT22;8120;48.308;8.914;2023-07-09T11:20:45;33.30;33.50
16032;DHT22;8120;48.308;8.914;2023-07-09T11:23:19;33.80;32.20
16032;DHT22;8120;48.308;8.914;2023-07-09T11:26:00;33.90;31.80
16032;DHT22;8120;48.308;8.914;2023-07-09T11:28:33;33.80;31.50
16032;DHT22;8120;48.308;8.914;2023-07-09T11:31:06;33.80;32.20
16032;DHT22;8120;48.308;8.914;2023-07-09T11:33:45;33.70;32.10
16032;DHT22;8120;48.308;8.914;2023-07-09T11:36:24;34.10;31.40
16032;DHT22;8120;48.308;8.914;2023-07-09T11:38:52;34.10;31.60
16032;DHT22;8120;48.308;8.914;2023-07-09T11:41:39;34.10;31.70
16032;DHT22;8120;48.308;8.914;2023-07-09T11:44:14;34.10;31.30
16032;DHT22;8120;48.308;8.914;2023-07-09T11:46:54;34.10;31.20
16032;DHT22;8120;48.308;8.914;2023-07-09T11:49:26;34.00;32.30
16032;DHT22;8120;48.308;8.914;2023-07-09T11:52:00;33.80;31.60
16032;DHT22;8120;48.308;8.914;2023-07-09T11:54:34;34.20;31.50
16032;DHT22;8120;48.308;8.914;2023-07-09T11:57:07;34.10;31.80
16032;DHT22;8120;48.308;8.914;2023-07-09T11:59:38;34.30;31.40
16032;DHT22;8120;48.308;8.914;2023-07-09T12:02:15;34.50;31.20
16032;DHT22;8120;48.308;8.914;2023-07-09T12:04:48;34.70;30.60
16032;DHT22;8120;48.308;8.914;2023-07-09T12:07:16;34.60;30.40
16032;DHT22;8120;48.308;8.914;2023-07-09T12:09:48;33.60;31.10
16032;DHT22;8120;48.308;8.914;2023-07-09T12:12:22;33.40;31.40
16032;DHT22;8120;48.308;8.914;2023-07-09T12:14:51;33.30;31.70
16032;DHT22;8120;48.308;8.914;2023-07-09T12:17:25;33.30;32.00
16032;DHT22;8120;48.308;8.914;2023-07-09T12:19:56;33.50;32.00
16032;DHT22;8120;48.308;8.914;2023-07-09T12:22:24;33.50;31.90
16032;DHT22;8120;48.308;8.914;2023-07-09T12:24:52;33.10;32.00
16032;DHT22;8120;48.308;8.914;2023-07-09T12:27:24;33.30;32.80
16032;DHT22;8120;48.308;8.914;2023-07-09T12:29:55;33.50;32.10
16032;DHT22;8120;48.308;8.914;2023-07-09T12:32:23;34.00;31.80
16032;DHT22;8120;48.308;8.914;2023-07-09T12:34:55;34.50;30.80
16032;DHT22;8120;48.308;8.914;2023-07-09T12:37:26;34.70;30.50
16032;DHT22;8120;48.308;8.914;2023-07-09T12:39:59;34.90;30.40
16032;DHT22;8120;48.308;8.914;2023-07-09T12:42:30;35.10;30.20
16032;DHT22;8120;48.308;8.914;2023-07-09T12:45:00;35.40;29.70
16032;DHT22;8120;48.308;8.914;2023-07-09T12:47:28;35.40;29.00
16032;DHT22;8120;48.308;8.914;2023-07-09T12:50:02;35.40;29.10
16032;DHT22;8120;48.308;8.914;2023-07-09T12:52:32;35.50;29.70
16032;DHT22;8120;48.308;8.914;2023-07-09T12:55:01;35.40;29.90
16032;DHT22;8120;48.308;8.914;2023-07-09T12:57:29;35.70;29.20
16032;DHT22;8120;48.308;8.914;2023-07-09T12:59:58;35.90;28.50
16032;DHT22;8120;48.308;8.914;2023-07-09T13:02:27;35.60;28.20
16032;DHT22;8120;48.308;8.914;2023-07-09T13:05:01;35.50;27.50
16032;DHT22;8120;48.308;8.914;2023-07-09T13:07:33;35.00;28.00
16032;DHT22;8120;48.308;8.914;2023-07-09T13:10:11;34.90;28.60
16032;DHT22;8120;48.308;8.914;2023-07-09T13:12:45;35.20;29.40
16032;DHT22;8120;48.308;8.914;2023-07-09T13:15:26;35.00;28.60
16032;DHT22;8120;48.308;8.914;2023-07-09T13:17:58;35.40;28.60
16032;DHT22;8120;48.308;8.914;2023-07-09T13:20:27;35.30;27.60
16032;DHT22;8120;48.308;8.914;2023-07-09T13:22:57;35.10;28.50
16032;DHT22;8120;48.308;8.914;2023-07-09T13:25:25;35.00;28.30
16032;DHT22;8120;48.308;8.914;2023-07-09T13:28:18;35.00;27.10
16032;DHT22;8120;48.308;8.914;2023-07-09T13:30:48;35.10;27.60
16032;DHT22;8120;48.308;8.914;2023-07-09T13:33:17;35.00;27.50
16032;DHT22;8120;48.308;8.914;2023-07-09T13:35:46;35.50;26.80
16032;DHT22;8120;48.308;8.914;2023-07-09T13:38:17;35.40;27.50
16032;DHT22;8120;48.308;8.914;2023-07-09T13:40:48;35.00;27.60
16032;DHT22;8120;48.308;8.914;2023-07-09T13:43:20;34.90;28.00
16032;DHT22;8120;48.308;8.914;2023-07-09T13:45:49;34.90;29.30
16032;DHT22;8120;48.308;8.914;2023-07-09T13:48:19;34.50;29.70
16032;DHT22;8120;48.308;8.914;2023-07-09T13:50:50;34.20;30.00
16032;DHT22;8120;48.308;8.914;2023-07-09T13:53:22;33.90;30.30
16032;DHT22;8120;48.308;8.914;2023-07-09T13:55:50;33.90;30.20
16032;DHT22;8120;48.308;8.914;2023-07-09T13:58:21;33.90;30.70
16032;DHT22;8120;48.308;8.914;2023-07-09T14:00:50;33.80;30.60
16032;DHT22;8120;48.308;8.914;2023-07-09T14:03:23;33.90;31.40
16032;DHT22;8120;48.308;8.914;2023-07-09T14:05:52;34.20;30.60
16032;DHT22;8120;48.308;8.914;2023-07-09T14:08:21;34.50;30.20
16032;DHT22;8120;48.308;8.914;2023-07-09T14:10:50;34.80;31.00
16032;DHT22;8120;48.308;8.914;2023-07-09T14:13:20;34.70;29.80
16032;DHT22;8120;48.308;8.914;2023-07-09T14:15:48;34.30;30.40
16032;DHT22;8120;48.308;8.914;2023-07-09T14:18:18;34.70;29.60
16032;DHT22;8120;48.308;8.914;2023-07-09T14:20:47;34.90;29.50
16032;DHT22;8120;48.308;8.914;2023-07-09T14:23:18;34.90;28.50
16032;DHT22;8120;48.308;8.914;2023-07-09T14:25:48;35.20;28.40
16032;DHT22;8120;48.308;8.914;2023-07-09T14:28:17;35.40;28.40
16032;DHT22;8120;48.308;8.914;2023-07-09T14:30:46;35.10;28.40
16032;DHT22;8120;48.308;8.914;2023-07-09T14:33:17;35.00;28.60
16032;DHT22;8120;48.308;8.914;2023-07-09T14:35:46;35.40;28.30
16032;DHT22;8120;48.308;8.914;2023-07-09T14:38:16;35.50;27.90
16032;DHT22;8120;48.308;8.914;2023-07-09T14:40:45;35.60;28.10
16032;DHT22;8120;48.308;8.914;2023-07-09T14:43:15;35.40;27.90
16032;DHT22;8120;48.308;8.914;2023-07-09T14:45:43;35.20;28.40
16032;DHT22;8120;48.308;8.914;2023-07-09T14:48:13;35.50;28.20
16032;DHT22;8120;48.308;8.914;2023-07-09T14:50:41;35.00;27.80
16032;DHT22;8120;48.308;8.914;2023-07-09T14:53:14;35.00;27.70
16032;DHT22;8120;48.308;8.914;2023-07-09T14:55:42;35.40;27.60
16032;DHT22;8120;48.308;8.914;2023-07-09T14:58:17;35.40;28.10
16032;DHT22;8120;48.308;8.914;2023-07-09T15:00:46;35.40;28.30
16032;DHT22;8120;48.308;8.914;2023-07-09T15:03:18;35.30;28.40
16032;DHT22;8120;48.308;8.914;2023-07-09T15:05:47;35.20;28.30
16032;DHT22;8120;48.308;8.914;2023-07-09T15:08:16;34.80;28.50
16032;DHT22;8120;48.308;8.914;2023-07-09T15:10:45;35.10;28.40
16032;DHT22;8120;48.308;8.914;2023-07-09T15:13:18;35.30;28.60
16032;DHT22;8120;48.308;8.914;2023-07-09T15:15:46;35.70;28.90
16032;DHT22;8120;48.308;8.914;2023-07-09T15:18:15;36.00;28.10
16032;DHT22;8120;48.308;8.914;2023-07-09T15:20:48;36.00;28.70
16032;DHT22;8120;48.308;8.914;2023-07-09T15:23:17;35.90;28.80
16032;DHT22;8120;48.308;8.914;2023-07-09T15:25:45;35.70;29.40
16032;DHT22;8120;48.308;8.914;2023-07-09T15:28:13;35.60;29.00
16032;DHT22;8120;48.308;8.914;2023-07-09T15:30:42;35.40;28.60
16032;DHT22;8120;48.308;8.914;2023-07-09T15:33:14;35.10;28.80
16032;DHT22;8120;48.308;8.914;2023-07-09T15:35:43;35.30;29.10
16032;DHT22;8120;48.308;8.914;2023-07-09T15:38:30;35.30;28.70
16032;DHT22;8120;48.308;8.914;2023-07-09T15:40:58;35.00;28.50
16032;DHT22;8120;48.308;8.914;2023-07-09T15:43:26;34.80;28.60
16032;DHT22;8120;48.308;8.914;2023-07-09T15:45:57;34.80;28.90
16032;DHT22;8120;48.308;8.914;2023-07-09T15:48:27;35.00;29.30
16032;DHT22;8120;48.308;8.914;2023-07-09T15:50:57;35.00;29.10
16032;DHT22;8120;48.308;8.914;2023-07-09T15:53:26;34.90;28.80
16032;DHT22;8120;48.308;8.914;2023-07-09T15:55:57;34.70;29.60
16032;DHT22;8120;48.308;8.914;2023-07-09T15:58:27;34.60;29.20
16032;DHT22;8120;48.308;8.914;2023-07-09T16:00:57;34.50;29.60
16032;DHT22;8120;48.308;8.914;2023-07-09T16:03:25;34.30;29.80
16032;DHT22;8120;48.308;8.914;2023-07-09T16:05:53;34.00;30.30
16032;DHT22;8120;48.308;8.914;2023-07-09T16:08:21;33.80;30.80